Time;durP1;ratioP1;P1;durP2;ratioP2;P2;SDS_P1;SDS_P2;PMS_P1;PMS_P2;Temp;Humidity;BMP_temperature;BMP_pressure;BME280_temperature;BME280_humidity;BME280_pressure;Samples;Min_cycle;Max_cycle;Signal;HPM_P1;HPM_P2
2022/03/18 00:00:52;;;;;;;14.93;11.50;;;;;;;;;;5028031;28;20506;-74
2022/03/18 00:03:18;;;;;;;14.20;12.13;;;;;;;;;;5024524;28;20532;-73
2022/03/18 00:05:44;;;;;;;12.20;10.97;;;;;;;;;;5026435;28;20490;-73
2022/03/18 00:08:10;;;;;;;13.23;11.63;;;;;;;;;;5028332;28;20479;-73
2022/03/18 00:10:36;;;;;;;13.77;12.10;;;;;;;;;;5030024;28;20437;-74
2022/03/18 00:13:03;;;;;;;12.40;10.70;;;;;;;;;;5025133;28;20447;-73
2022/03/18 00:15:29;;;;;;;15.37;11.63;;;;;;;;;;5026990;28;20451;-74
2022/03/18 00:17:55;;;;;;;12.30;11.10;;;;;;;;;;5024765;28;20446;-76
2022/03/18 00:20:22;;;;;;;14.40;11.57;;;;;;;;;;5027457;28;20470;-74
2022/03/18 00:22:48;;;;;;;12.90;11.57;;;;;;;;;;5025619;28;20453;-73
2022/03/18 00:25:15;;;;;;;12.77;11.47;;;;;;;;;;5025063;28;20533;-74
2022/03/18 00:27:44;;;;;;;15.07;12.67;;;;;;;;;;5027242;28;20487;-74
2022/03/18 00:30:11;;;;;;;15.50;13.87;;;;;;;;;;5027969;28;20530;-73
2022/03/18 00:32:41;;;;;;;12.70;11.50;;;;;;;;;;5027319;28;20446;-74
2022/03/18 00:35:08;;;;;;;17.97;13.23;;;;;;;;;;5028083;28;20447;-73
2022/03/18 00:37:34;;;;;;;12.43;11.23;;;;;;;;;;5028954;28;20435;-73
2022/03/18 00:40:00;;;;;;;15.87;14.27;;;;;;;;;;5027728;28;20447;-73
2022/03/18 00:42:26;;;;;;;12.97;11.70;;;;;;;;;;5027103;28;20485;-73
2022/03/18 00:44:52;;;;;;;14.33;13.03;;;;;;;;;;5043261;28;20875;-73
2022/03/18 00:52:49;;;;;;;13.40;11.67;;;;;;;;;;5030451;28;21036;-73
2022/03/18 00:55:14;;;;;;;11.37;10.13;;;;;;;;;;5029024;28;20467;-73
2022/03/18 00:57:40;;;;;;;15.67;11.93;;;;;;;;;;5032846;28;20446;-73
2022/03/18 01:00:07;;;;;;;12.53;11.20;;;;;;;;;;5027840;28;20540;-74
2022/03/18 01:02:33;;;;;;;12.10;9.50;;;;;;;;;;5029929;28;20446;-72
2022/03/18 01:04:59;;;;;;;11.27;10.17;;;;;;;;;;5030783;28;20815;-76
2022/03/18 01:07:25;;;;;;;13.57;11.97;;;;;;;;;;5031548;28;20491;-73
2022/03/18 01:09:51;;;;;;;13.13;11.73;;;;;;;;;;5027953;28;20443;-73
2022/03/18 01:12:17;;;;;;;10.90;9.87;;;;;;;;;;5030086;28;20537;-73
2022/03/18 01:14:43;;;;;;;11.60;10.00;;;;;;;;;;5031118;28;20494;-73
2022/03/18 01:17:09;;;;;;;13.50;10.43;;;;;;;;;;5028879;28;20985;-73
2022/03/18 01:19:35;;;;;;;13.50;10.90;;;;;;;;;;5029367;28;20470;-73
2022/03/18 01:22:01;;;;;;;14.37;10.30;;;;;;;;;;5030599;28;20506;-74
2022/03/18 01:24:27;;;;;;;12.90;9.80;;;;;;;;;;5029507;28;20447;-74
2022/03/18 01:26:53;;;;;;;15.60;11.43;;;;;;;;;;5028718;28;20473;-73
2022/03/18 01:29:19;;;;;;;10.60;9.70;;;;;;;;;;5031432;28;20438;-73
2022/03/18 01:31:45;;;;;;;9.67;8.77;;;;;;;;;;5029293;28;20443;-73
2022/03/18 01:34:11;;;;;;;13.13;11.57;;;;;;;;;;5031416;28;20443;-73
2022/03/18 01:36:37;;;;;;;11.77;9.90;;;;;;;;;;5031107;28;20582;-73
2022/03/18 01:39:03;;;;;;;8.67;7.77;;;;;;;;;;5031427;28;20873;-73
2022/03/18 01:41:29;;;;;;;9.67;8.90;;;;;;;;;;5030886;28;20435;-72
2022/03/18 01:43:55;;;;;;;10.40;9.40;;;;;;;;;;5031543;28;20931;-73
2022/03/18 01:46:21;;;;;;;8.37;7.63;;;;;;;;;;5029109;28;20496;-73
2022/03/18 01:48:48;;;;;;;10.20;9.17;;;;;;;;;;5031169;28;20442;-73
2022/03/18 01:51:15;;;;;;;9.60;8.80;;;;;;;;;;5031003;28;20435;-72
2022/03/18 01:53:43;;;;;;;6.90;6.40;;;;;;;;;;5031023;28;20447;-73
2022/03/18 01:56:09;;;;;;;10.47;9.50;;;;;;;;;;5030382;28;20465;-73
2022/03/18 01:58:35;;;;;;;10.07;8.10;;;;;;;;;;5032059;28;20451;-73
2022/03/18 02:01:01;;;;;;;10.47;9.37;;;;;;;;;;5030910;28;20439;-73
2022/03/18 02:03:27;;;;;;;14.00;8.57;;;;;;;;;;5031188;28;20447;-73
2022/03/18 02:05:53;;;;;;;8.87;8.17;;;;;;;;;;5031607;28;20867;-72
2022/03/18 02:08:20;;;;;;;8.70;7.87;;;;;;;;;;5030187;28;21005;-73
2022/03/18 02:10:46;;;;;;;8.53;7.73;;;;;;;;;;5030907;28;20423;-73
2022/03/18 02:13:12;;;;;;;7.30;6.50;;;;;;;;;;5029759;28;20451;-73
2022/03/18 02:15:38;;;;;;;6.63;5.93;;;;;;;;;;5031349;28;20526;-73
2022/03/18 02:18:05;;;;;;;9.70;7.10;;;;;;;;;;5030566;28;20489;-72
2022/03/18 02:20:32;;;;;;;10.20;7.17;;;;;;;;;;5031046;28;20434;-72
2022/03/18 02:22:58;;;;;;;11.37;7.60;;;;;;;;;;5031375;28;20530;-73
2022/03/18 02:25:24;;;;;;;6.60;6.10;;;;;;;;;;5030401;28;20539;-73
2022/03/18 02:28:08;;;;;;;6.43;5.90;;;;;;;;;;5030391;28;20549;-73
2022/03/18 02:30:35;;;;;;;6.73;6.20;;;;;;;;;;5029853;28;20450;-73
2022/03/18 02:33:02;;;;;;;5.97;5.20;;;;;;;;;;5031680;28;20422;-73
2022/03/18 02:35:28;;;;;;;5.53;5.10;;;;;;;;;;5029954;28;20516;-73
2022/03/18 02:37:54;;;;;;;4.37;4.13;;;;;;;;;;5031061;28;20431;-73
2022/03/18 02:40:20;;;;;;;9.47;6.00;;;;;;;;;;5032138;28;20450;-73
2022/03/18 02:42:46;;;;;;;7.57;5.63;;;;;;;;;;5029872;28;20427;-73
2022/03/18 02:45:12;;;;;;;7.90;5.77;;;;;;;;;;5029419;28;20473;-73
2022/03/18 02:47:38;;;;;;;7.80;6.23;;;;;;;;;;5028936;28;20483;-73
2022/03/18 02:50:06;;;;;;;6.80;4.77;;;;;;;;;;5031476;28;20444;-73
2022/03/18 02:52:32;;;;;;;4.83;4.50;;;;;;;;;;5030842;28;20450;-73
2022/03/18 02:54:58;;;;;;;7.87;5.70;;;;;;;;;;5031221;28;20541;-72
2022/03/18 02:57:24;;;;;;;4.67;4.30;;;;;;;;;;5030065;28;20435;-72
2022/03/18 02:59:50;;;;;;;6.47;5.23;;;;;;;;;;5030390;28;20423;-73
2022/03/18 03:02:16;;;;;;;5.30;4.97;;;;;;;;;;5029761;28;20477;-73
2022/03/18 03:10:11;;;;;;;5.87;4.70;;;;;;;;;;5030894;28;20418;-73
2022/03/18 03:12:38;;;;;;;5.10;4.60;;;;;;;;;;5030055;28;20863;-74
2022/03/18 03:15:04;;;;;;;4.70;4.30;;;;;;;;;;5030976;28;20442;-73
2022/03/18 03:17:30;;;;;;;5.00;4.47;;;;;;;;;;5029655;28;20450;-74
2022/03/18 03:19:56;;;;;;;4.90;4.73;;;;;;;;;;5029871;28;20949;-73
2022/03/18 03:22:22;;;;;;;4.60;4.00;;;;;;;;;;5028919;28;20435;-74
2022/03/18 03:24:48;;;;;;;5.30;4.63;;;;;;;;;;5030149;28;20431;-73
2022/03/18 03:27:14;;;;;;;4.83;3.77;;;;;;;;;;5029151;28;20536;-73
2022/03/18 03:29:40;;;;;;;7.20;3.97;;;;;;;;;;5027413;28;20551;-73
2022/03/18 03:32:06;;;;;;;6.53;5.03;;;;;;;;;;5029583;28;21157;-73
2022/03/18 03:34:32;;;;;;;5.40;4.90;;;;;;;;;;5029139;28;20436;-73
2022/03/18 03:36:58;;;;;;;5.83;4.70;;;;;;;;;;5029750;28;20446;-73
2022/03/18 03:39:24;;;;;;;4.30;4.00;;;;;;;;;;5029917;28;20463;-73
2022/03/18 03:41:50;;;;;;;5.10;4.80;;;;;;;;;;5029780;28;20431;-73
2022/03/18 03:44:16;;;;;;;6.83;4.33;;;;;;;;;;5029110;28;20443;-73
2022/03/18 03:46:42;;;;;;;7.20;5.03;;;;;;;;;;5029176;28;20486;-73
2022/03/18 03:49:09;;;;;;;7.60;4.60;;;;;;;;;;5029375;28;20490;-73
2022/03/18 03:51:35;;;;;;;6.40;4.80;;;;;;;;;;5029703;28;20470;-74
2022/03/18 03:54:01;;;;;;;5.07;4.77;;;;;;;;;;5028977;28;20451;-74
2022/03/18 03:56:27;;;;;;;4.50;4.00;;;;;;;;;;5027930;28;20530;-74
2022/03/18 03:58:53;;;;;;;4.50;4.30;;;;;;;;;;5029422;28;20454;-73
2022/03/18 04:01:19;;;;;;;6.13;4.47;;;;;;;;;;5029544;28;20434;-75
2022/03/18 04:03:47;;;;;;;5.43;4.57;;;;;;;;;;5030119;28;20940;-74
2022/03/18 04:06:13;;;;;;;4.70;4.40;;;;;;;;;;5028982;28;20430;-73
2022/03/18 04:08:39;;;;;;;7.73;4.63;;;;;;;;;;5029441;28;20443;-73
2022/03/18 04:11:05;;;;;;;7.97;7.13;;;;;;;;;;5029131;28;20423;-73
2022/03/18 04:13:31;;;;;;;4.43;3.97;;;;;;;;;;5029361;28;20449;-74
2022/03/18 04:15:57;;;;;;;4.47;4.27;;;;;;;;;;5029063;28;20519;-74
2022/03/18 04:18:23;;;;;;;5.07;4.70;;;;;;;;;;5026929;28;20446;-74
2022/03/18 04:20:49;;;;;;;7.23;5.10;;;;;;;;;;5033466;28;20489;-73
2022/03/18 04:23:15;;;;;;;6.20;5.00;;;;;;;;;;5031520;28;20450;-73
2022/03/18 04:25:41;;;;;;;6.07;4.50;;;;;;;;;;5032155;28;20431;-73
2022/03/18 04:28:07;;;;;;;4.60;4.30;;;;;;;;;;5033281;28;20501;-73
2022/03/18 04:30:33;;;;;;;4.60;3.87;;;;;;;;;;5035001;28;20983;-73
2022/03/18 04:32:59;;;;;;;8.57;5.00;;;;;;;;;;5033143;28;20527;-73
2022/03/18 04:35:26;;;;;;;5.10;4.63;;;;;;;;;;5033389;28;20428;-73
2022/03/18 04:37:52;;;;;;;6.00;4.60;;;;;;;;;;5033038;28;20443;-73
2022/03/18 04:40:18;;;;;;;7.40;4.50;;;;;;;;;;5033540;28;20438;-73
2022/03/18 04:42:44;;;;;;;6.93;4.73;;;;;;;;;;5031745;28;20440;-73
2022/03/18 04:45:11;;;;;;;5.43;4.20;;;;;;;;;;5033305;28;20829;-74
2022/03/18 04:47:37;;;;;;;4.27;4.03;;;;;;;;;;5031881;28;20548;-74
2022/03/18 04:50:04;;;;;;;4.83;3.90;;;;;;;;;;5033070;28;20419;-74
2022/03/18 04:52:30;;;;;;;5.00;4.70;;;;;;;;;;5030954;28;20443;-73
2022/03/18 04:54:57;;;;;;;4.77;4.47;;;;;;;;;;5032353;28;20434;-74
2022/03/18 04:57:23;;;;;;;8.87;4.57;;;;;;;;;;5033337;28;20450;-73
2022/03/18 04:59:51;;;;;;;4.83;4.30;;;;;;;;;;5032809;28;20923;-74
2022/03/18 05:02:17;;;;;;;8.00;5.20;;;;;;;;;;5032527;28;20434;-73
2022/03/18 05:04:44;;;;;;;7.03;4.40;;;;;;;;;;5032529;28;20466;-74
2022/03/18 05:07:11;;;;;;;4.97;4.53;;;;;;;;;;5033397;28;20493;-73
2022/03/18 05:09:38;;;;;;;6.57;4.60;;;;;;;;;;5032807;28;20521;-73
2022/03/18 05:12:04;;;;;;;5.47;4.97;;;;;;;;;;5033202;28;20922;-75
2022/03/18 05:14:31;;;;;;;4.53;4.23;;;;;;;;;;5031727;28;20426;-74
2022/03/18 05:16:57;;;;;;;5.97;4.93;;;;;;;;;;5031717;28;20435;-74
2022/03/18 05:19:23;;;;;;;4.73;4.07;;;;;;;;;;5032743;28;20791;-74
2022/03/18 05:21:49;;;;;;;7.40;4.27;;;;;;;;;;5029776;28;20493;-73
2022/03/18 05:24:16;;;;;;;5.43;4.77;;;;;;;;;;5031520;28;20501;-73
2022/03/18 05:26:42;;;;;;;4.10;3.80;;;;;;;;;;5032154;28;20479;-73
2022/03/18 05:29:09;;;;;;;4.50;4.30;;;;;;;;;;5032814;28;20641;-73
2022/03/18 05:31:36;;;;;;;5.57;3.50;;;;;;;;;;5032182;28;20459;-73
2022/03/18 05:34:02;;;;;;;5.77;4.27;;;;;;;;;;5032423;28;20423;-74
2022/03/18 05:36:27;;;;;;;7.70;4.67;;;;;;;;;;5034467;28;20501;-73
2022/03/18 05:38:53;;;;;;;4.40;4.10;;;;;;;;;;5031485;28;20782;-73
2022/03/18 05:41:19;;;;;;;6.97;4.10;;;;;;;;;;5032452;28;20439;-75
2022/03/18 05:43:45;;;;;;;5.30;4.97;;;;;;;;;;5031677;28;20526;-73
2022/03/18 05:46:11;;;;;;;9.90;4.20;;;;;;;;;;5031956;28;20482;-74
2022/03/18 05:48:38;;;;;;;4.53;4.07;;;;;;;;;;5031344;28;21010;-73
2022/03/18 05:51:04;;;;;;;4.07;3.87;;;;;;;;;;5033758;28;20474;-73
2022/03/18 05:53:30;;;;;;;5.27;3.83;;;;;;;;;;5030664;28;20474;-73
2022/03/18 05:58:43;;;;;;;8.87;5.10;;;;;;;;;;5030846;28;20507;-73
2022/03/18 06:01:10;;;;;;;5.60;4.60;;;;;;;;;;5032064;28;20903;-73
2022/03/18 06:03:36;;;;;;;9.03;5.10;;;;;;;;;;5030961;28;21135;-73
2022/03/18 06:06:03;;;;;;;6.37;5.30;;;;;;;;;;5031642;28;20857;-73
2022/03/18 06:13:59;;;;;;;4.13;4.00;;;;;;;;;;5031214;28;20481;-74
2022/03/18 06:16:25;;;;;;;7.60;5.03;;;;;;;;;;5031419;28;20423;-73
2022/03/18 06:18:51;;;;;;;6.33;4.43;;;;;;;;;;5030067;28;20458;-74
2022/03/18 06:21:17;;;;;;;6.17;4.47;;;;;;;;;;5032654;28;20443;-74
2022/03/18 06:23:43;;;;;;;4.90;4.50;;;;;;;;;;5028190;28;20489;-74
2022/03/18 06:26:09;;;;;;;5.90;5.17;;;;;;;;;;5030874;28;20522;-74
2022/03/18 06:28:35;;;;;;;6.40;4.60;;;;;;;;;;5031049;28;20978;-74
2022/03/18 06:31:02;;;;;;;4.97;4.77;;;;;;;;;;5030742;28;20449;-73
2022/03/18 06:33:28;;;;;;;3.43;3.17;;;;;;;;;;5028470;28;20435;-73
2022/03/18 06:35:54;;;;;;;7.30;3.97;;;;;;;;;;5029557;28;20457;-73
2022/03/18 06:38:20;;;;;;;4.70;4.27;;;;;;;;;;5030487;28;20804;-73
2022/03/18 06:40:46;;;;;;;7.27;4.20;;;;;;;;;;5031676;28;20522;-73
2022/03/18 06:43:12;;;;;;;7.87;6.60;;;;;;;;;;5031537;28;20923;-74
2022/03/18 06:45:38;;;;;;;8.70;6.57;;;;;;;;;;5030327;28;20999;-73
2022/03/18 06:48:04;;;;;;;11.07;5.50;;;;;;;;;;5030383;28;20482;-74
2022/03/18 06:50:30;;;;;;;9.33;6.00;;;;;;;;;;5022967;28;20442;-74
2022/03/18 06:52:56;;;;;;;8.23;4.50;;;;;;;;;;5030974;28;20435;-74
2022/03/18 06:55:22;;;;;;;8.83;4.43;;;;;;;;;;5026710;28;20458;-74
2022/03/18 06:57:48;;;;;;;6.23;4.20;;;;;;;;;;5030798;28;20923;-74
2022/03/18 07:00:14;;;;;;;4.67;4.13;;;;;;;;;;5030087;28;20442;-74
2022/03/18 07:02:40;;;;;;;7.83;4.00;;;;;;;;;;5029273;28;20434;-74
2022/03/18 07:05:06;;;;;;;5.60;4.13;;;;;;;;;;5030265;28;20418;-73
2022/03/18 07:07:32;;;;;;;13.40;4.13;;;;;;;;;;5029317;28;20483;-74
2022/03/18 07:09:58;;;;;;;8.77;4.73;;;;;;;;;;5030116;28;20461;-74
2022/03/18 07:12:27;;;;;;;4.90;4.60;;;;;;;;;;5029630;28;20443;-74
2022/03/18 07:14:53;;;;;;;4.37;3.97;;;;;;;;;;5030451;28;20427;-74
2022/03/18 07:20:04;;;;;;;9.73;5.67;;;;;;;;;;5030579;28;20442;-73
2022/03/18 07:22:30;;;;;;;4.50;4.37;;;;;;;;;;5028044;28;20439;-73
2022/03/18 07:24:56;;;;;;;5.47;4.37;;;;;;;;;;5030079;28;20496;-74
2022/03/18 07:27:22;;;;;;;5.60;4.17;;;;;;;;;;5029659;28;20525;-75
2022/03/18 07:29:48;;;;;;;7.20;4.13;;;;;;;;;;5029588;28;20435;-73
2022/03/18 07:32:15;;;;;;;4.10;3.07;;;;;;;;;;5028946;28;20522;-74
2022/03/18 07:34:41;;;;;;;8.80;4.00;;;;;;;;;;5031723;28;20463;-74
2022/03/18 07:37:08;;;;;;;5.93;5.00;;;;;;;;;;5029403;28;20431;-74
2022/03/18 07:39:34;;;;;;;16.43;5.23;;;;;;;;;;5026930;28;20447;-74
2022/03/18 07:42:00;;;;;;;4.60;4.40;;;;;;;;;;5027531;28;20525;-75
2022/03/18 07:44:26;;;;;;;4.07;3.77;;;;;;;;;;5026327;28;20426;-74
2022/03/18 07:46:52;;;;;;;7.47;4.33;;;;;;;;;;5028471;28;20485;-74
2022/03/18 07:49:17;;;;;;;6.07;4.90;;;;;;;;;;5029878;28;20451;-74
2022/03/18 07:51:43;;;;;;;6.63;3.90;;;;;;;;;;5026799;28;20511;-75
2022/03/18 07:54:12;;;;;;;7.00;4.90;;;;;;;;;;5026618;28;20435;-75
2022/03/18 07:56:38;;;;;;;4.23;3.93;;;;;;;;;;5029302;28;21601;-74
2022/03/18 07:59:04;;;;;;;5.20;4.63;;;;;;;;;;5025106;28;21100;-74
2022/03/18 08:01:30;;;;;;;4.67;4.30;;;;;;;;;;5026123;28;20447;-74
2022/03/18 08:03:56;;;;;;;4.97;4.33;;;;;;;;;;5026888;28;20603;-73
2022/03/18 08:06:22;;;;;;;9.50;4.97;;;;;;;;;;5026674;28;20996;-74
2022/03/18 08:08:48;;;;;;;8.20;4.90;;;;;;;;;;5028297;28;20496;-73
2022/03/18 08:11:15;;;;;;;9.97;5.67;;;;;;;;;;5029370;28;20462;-73
2022/03/18 08:13:42;;;;;;;7.73;4.97;;;;;;;;;;5029616;28;20435;-73
2022/03/18 08:16:07;;;;;;;9.43;4.60;;;;;;;;;;5026297;28;20932;-73
2022/03/18 08:18:33;;;;;;;4.63;4.27;;;;;;;;;;5025478;28;20450;-74
2022/03/18 08:20:59;;;;;;;13.70;7.93;;;;;;;;;;5027692;28;21249;-74
2022/03/18 08:23:27;;;;;;;6.33;5.33;;;;;;;;;;5028014;28;20466;-73
2022/03/18 08:25:53;;;;;;;4.73;4.10;;;;;;;;;;5027860;28;20451;-74
2022/03/18 08:28:19;;;;;;;4.90;4.47;;;;;;;;;;5027121;28;20487;-74
2022/03/18 08:30:45;;;;;;;9.73;5.90;;;;;;;;;;5025322;28;20439;-73
2022/03/18 08:33:11;;;;;;;9.50;5.27;;;;;;;;;;5025762;28;20483;-74
2022/03/18 08:35:38;;;;;;;8.37;5.20;;;;;;;;;;5028234;28;20470;-74
2022/03/18 08:38:07;;;;;;;5.70;3.80;;;;;;;;;;5021925;28;20486;-73
2022/03/18 08:40:34;;;;;;;8.63;5.20;;;;;;;;;;5025909;28;20446;-73
2022/03/18 08:43:01;;;;;;;8.63;5.07;;;;;;;;;;5028420;28;20862;-73
2022/03/18 08:45:27;;;;;;;6.30;5.47;;;;;;;;;;5027929;28;20467;-73
2022/03/18 08:47:54;;;;;;;6.20;5.60;;;;;;;;;;5026515;28;20498;-74
2022/03/18 08:50:23;;;;;;;6.20;5.60;;;;;;;;;;5026453;28;20443;-73
2022/03/18 08:52:53;;;;;;;4.60;4.23;;;;;;;;;;5028745;28;20443;-74
2022/03/18 08:55:20;;;;;;;12.90;5.30;;;;;;;;;;5029403;28;20450;-74
2022/03/18 08:57:46;;;;;;;7.43;4.90;;;;;;;;;;5020505;28;20477;-74
2022/03/18 09:00:14;;;;;;;5.03;4.60;;;;;;;;;;5024596;28;20478;-74
2022/03/18 09:02:40;;;;;;;6.73;5.23;;;;;;;;;;5027753;28;20466;-74
2022/03/18 09:05:10;;;;;;;7.70;4.67;;;;;;;;;;5028710;28;20442;-72
2022/03/18 09:07:36;;;;;;;9.87;5.20;;;;;;;;;;5029280;28;21024;-73
2022/03/18 09:10:04;;;;;;;6.57;4.87;;;;;;;;;;5031319;28;20438;-75
2022/03/18 09:12:30;;;;;;;5.70;5.10;;;;;;;;;;5032006;28;20479;-74
2022/03/18 09:14:56;;;;;;;6.33;5.73;;;;;;;;;;5030980;28;20810;-73
2022/03/18 09:17:22;;;;;;;8.97;6.20;;;;;;;;;;5032219;28;20478;-73
2022/03/18 09:19:48;;;;;;;9.07;5.13;;;;;;;;;;5032310;28;20438;-73
2022/03/18 09:22:16;;;;;;;7.03;5.47;;;;;;;;;;5028915;28;20458;-74
2022/03/18 09:24:42;;;;;;;12.47;6.10;;;;;;;;;;5029588;28;20856;-73
2022/03/18 09:27:09;;;;;;;7.00;6.33;;;;;;;;;;5027481;28;20570;-73
2022/03/18 09:29:36;;;;;;;10.40;7.77;;;;;;;;;;5027449;28;20817;-73
2022/03/18 09:32:02;;;;;;;8.70;5.63;;;;;;;;;;5029705;28;20514;-73
2022/03/18 09:34:28;;;;;;;8.60;4.63;;;;;;;;;;5029058;28;21008;-73
2022/03/18 09:36:55;;;;;;;10.70;7.07;;;;;;;;;;5028863;28;20446;-73
2022/03/18 09:39:23;;;;;;;7.87;7.03;;;;;;;;;;5028938;28;20546;-73
2022/03/18 09:41:49;;;;;;;7.03;6.27;;;;;;;;;;5028377;28;20465;-73
2022/03/18 09:44:15;;;;;;;10.73;8.03;;;;;;;;;;5031881;28;20481;-73
2022/03/18 09:46:41;;;;;;;7.63;6.93;;;;;;;;;;5029186;28;20962;-73
2022/03/18 09:49:11;;;;;;;13.80;7.57;;;;;;;;;;5028822;28;20443;-73
2022/03/18 09:51:40;;;;;;;13.30;9.50;;;;;;;;;;5030079;28;20463;-73
2022/03/18 09:54:06;;;;;;;8.50;6.70;;;;;;;;;;5029444;28;20486;-73
2022/03/18 09:56:33;;;;;;;14.70;10.43;;;;;;;;;;5031962;28;20449;-73
2022/03/18 09:58:59;;;;;;;15.23;7.70;;;;;;;;;;5027400;28;20451;-73
2022/03/18 10:01:25;;;;;;;9.43;8.27;;;;;;;;;;5026033;28;20442;-74
2022/03/18 10:03:51;;;;;;;12.87;8.77;;;;;;;;;;5026089;28;20451;-73
2022/03/18 10:06:17;;;;;;;9.80;8.27;;;;;;;;;;5026208;28;20470;-73
2022/03/18 10:08:44;;;;;;;17.57;10.83;;;;;;;;;;5030176;28;20499;-73
2022/03/18 10:11:13;;;;;;;21.48;13.00;;;;;;;;;;5026848;28;20438;-73
2022/03/18 10:13:59;;;;;;;20.23;10.90;;;;;;;;;;5030661;28;20189;-73
2022/03/18 10:16:41;;;;;;;19.10;11.00;;;;;;;;;;5024268;28;20500;-73
2022/03/18 10:19:07;;;;;;;22.30;11.10;;;;;;;;;;5041182;28;20447;-73
2022/03/18 10:21:33;;;;;;;11.00;8.80;;;;;;;;;;5029645;28;20493;-73
2022/03/18 10:24:06;;;;;;;16.30;11.10;;;;;;;;;;5029972;28;20482;-73
2022/03/18 10:26:34;;;;;;;13.60;10.87;;;;;;;;;;5026032;28;20523;-74
2022/03/18 10:29:00;;;;;;;11.20;10.10;;;;;;;;;;5028008;28;20837;-73
2022/03/18 10:31:27;;;;;;;12.20;9.83;;;;;;;;;;5030733;28;20423;-73
2022/03/18 10:37:04;;;;;;;12.00;10.77;;;;;;;;;;5025042;28;20514;-73
2022/03/18 10:39:39;;;;;;;15.57;12.27;;;;;;;;;;5026659;28;20443;-73
2022/03/18 10:42:09;;;;;;;14.27;10.80;;;;;;;;;;5030255;28;20488;-73
2022/03/18 10:44:45;;;;;;;18.60;12.63;;;;;;;;;;5031017;28;20420;-73
2022/03/18 10:47:23;;;;;;;9.13;8.17;;;;;;;;;;5029239;28;20902;-73
2022/03/18 10:49:49;;;;;;;15.60;10.90;;;;;;;;;;5027310;28;20500;-73
2022/03/18 10:52:15;;;;;;;17.47;14.37;;;;;;;;;;5027567;28;20928;-73
2022/03/18 10:54:41;;;;;;;18.37;13.93;;;;;;;;;;5030740;28;20454;-74
2022/03/18 10:57:07;;;;;;;18.40;15.33;;;;;;;;;;5028611;28;20435;-74
2022/03/18 10:59:33;;;;;;;18.97;14.90;;;;;;;;;;5030160;28;20466;-73
2022/03/18 11:02:00;;;;;;;23.70;15.30;;;;;;;;;;5027452;28;20450;-73
2022/03/18 11:04:26;;;;;;;19.30;12.93;;;;;;;;;;5030061;28;20939;-73
2022/03/18 11:12:32;;;;;;;27.60;22.27;;;;;;;;;;5027822;28;20485;-73
2022/03/18 11:14:58;;;;;;;20.20;13.10;;;;;;;;;;5028733;28;20439;-73
2022/03/18 11:17:25;;;;;;;24.60;16.37;;;;;;;;;;5028836;28;20452;-73
2022/03/18 11:19:59;;;;;;;24.43;18.83;;;;;;;;;;5027752;28;20423;-74
2022/03/18 11:22:26;;;;;;;13.77;10.17;;;;;;;;;;5024606;28;20959;-73
2022/03/18 11:24:53;;;;;;;24.27;18.57;;;;;;;;;;5027306;28;20998;-73
2022/03/18 11:27:19;;;;;;;26.70;21.40;;;;;;;;;;5026301;28;20487;-73
2022/03/18 11:29:45;;;;;;;21.40;16.90;;;;;;;;;;5043118;28;20566;-73
2022/03/18 11:32:20;;;;;;;30.80;21.20;;;;;;;;;;5028108;28;20978;-74
2022/03/18 11:34:50;;;;;;;11.33;10.17;;;;;;;;;;5028203;28;20426;-74
2022/03/18 11:37:16;;;;;;;34.20;17.77;;;;;;;;;;5027961;28;20518;-73
2022/03/18 11:39:42;;;;;;;28.73;19.10;;;;;;;;;;5027832;28;20545;-73
2022/03/18 11:42:09;;;;;;;23.67;18.70;;;;;;;;;;5026944;28;20857;-74
2022/03/18 11:44:41;;;;;;;24.23;17.20;;;;;;;;;;5025350;28;20438;-73
2022/03/18 11:47:28;;;;;;;38.37;21.33;;;;;;;;;;5039248;28;20562;-73
2022/03/18 11:49:55;;;;;;;20.87;15.00;;;;;;;;;;5044083;28;20549;-73
2022/03/18 11:52:21;;;;;;;19.63;14.47;;;;;;;;;;5036865;28;20989;-74
2022/03/18 11:54:55;;;;;;;19.10;17.07;;;;;;;;;;5037853;28;20973;-73
2022/03/18 11:57:34;;;;;;;26.27;19.63;;;;;;;;;;5041879;28;20426;-73
2022/03/18 12:00:07;;;;;;;27.37;21.30;;;;;;;;;;5035870;28;20552;-73
2022/03/18 12:02:33;;;;;;;32.63;19.80;;;;;;;;;;5045714;28;20449;-73
2022/03/18 12:04:59;;;;;;;23.50;17.33;;;;;;;;;;5044881;28;20443;-73
2022/03/18 12:07:30;;;;;;;22.47;16.77;;;;;;;;;;5045826;28;21048;-73
2022/03/18 12:10:06;;;;;;;25.13;19.40;;;;;;;;;;5042997;28;20446;-73
2022/03/18 12:12:36;;;;;;;25.97;19.13;;;;;;;;;;5048532;28;20584;-73
2022/03/18 12:15:06;;;;;;;20.80;15.20;;;;;;;;;;5048301;28;20427;-73
2022/03/18 12:17:40;;;;;;;25.10;17.37;;;;;;;;;;5048639;28;20506;-73
2022/03/18 12:20:07;;;;;;;21.70;16.67;;;;;;;;;;5048709;28;20425;-73
2022/03/18 12:22:37;;;;;;;25.23;19.43;;;;;;;;;;5043107;28;20508;-73
2022/03/18 12:25:04;;;;;;;22.03;17.53;;;;;;;;;;5063824;28;20466;-73
2022/03/18 12:27:33;;;;;;;24.77;20.90;;;;;;;;;;5046855;28;20929;-73
2022/03/18 12:30:00;;;;;;;22.47;16.57;;;;;;;;;;5049131;28;20422;-73
2022/03/18 12:32:26;;;;;;;24.77;17.77;;;;;;;;;;5047389;28;20454;-73
2022/03/18 12:34:53;;;;;;;20.43;15.03;;;;;;;;;;5049027;28;20421;-74
2022/03/18 12:37:22;;;;;;;20.90;15.83;;;;;;;;;;5048583;28;20692;-73
2022/03/18 12:40:00;;;;;;;23.60;18.03;;;;;;;;;;5049682;28;20424;-73
2022/03/18 12:42:26;;;;;;;26.77;19.47;;;;;;;;;;5052316;28;20918;-73
2022/03/18 12:44:58;;;;;;;21.40;17.73;;;;;;;;;;5052330;28;20446;-73
2022/03/18 12:47:25;;;;;;;21.97;15.50;;;;;;;;;;5048997;28;20477;-73
2022/03/18 12:49:51;;;;;;;22.50;15.07;;;;;;;;;;5053044;28;21304;-73
2022/03/18 12:52:19;;;;;;;27.00;17.23;;;;;;;;;;5050318;28;20944;-73
2022/03/18 12:55:18;;;;;;;18.73;16.50;;;;;;;;;;5052557;28;20987;-74
2022/03/18 12:57:44;;;;;;;24.30;15.63;;;;;;;;;;5039652;28;20529;-73
2022/03/18 13:00:12;;;;;;;25.70;17.60;;;;;;;;;;5052194;28;20462;-73
2022/03/18 13:02:41;;;;;;;18.63;15.90;;;;;;;;;;5049742;28;20528;-73
2022/03/18 13:05:07;;;;;;;21.17;14.60;;;;;;;;;;5051841;28;20434;-73
2022/03/18 13:07:33;;;;;;;19.53;15.10;;;;;;;;;;5050469;28;20880;-73
2022/03/18 13:10:00;;;;;;;18.37;15.00;;;;;;;;;;5047537;28;21038;-73
2022/03/18 13:12:27;;;;;;;24.37;18.37;;;;;;;;;;5048811;28;20449;-73
2022/03/18 13:14:55;;;;;;;22.37;18.27;;;;;;;;;;5047368;28;20446;-73
2022/03/18 13:17:22;;;;;;;19.63;15.53;;;;;;;;;;5045813;28;20937;-73
2022/03/18 13:19:50;;;;;;;18.23;15.87;;;;;;;;;;5044162;28;20842;-73
2022/03/18 13:22:21;;;;;;;15.10;12.20;;;;;;;;;;5047493;28;20834;-74
2022/03/18 13:24:47;;;;;;;24.90;15.60;;;;;;;;;;5043835;28;20966;-74
2022/03/18 13:27:13;;;;;;;21.20;16.43;;;;;;;;;;5033297;28;20482;-73
2022/03/18 13:35:10;;;;;;;18.13;13.53;;;;;;;;;;5051785;28;20469;-73
2022/03/18 13:37:36;;;;;;;19.50;15.93;;;;;;;;;;5048132;28;20493;-73
2022/03/18 13:40:15;;;;;;;19.77;14.00;;;;;;;;;;5047473;28;20947;-74
2022/03/18 13:42:42;;;;;;;18.60;15.20;;;;;;;;;;5048039;28;20431;-73
2022/03/18 13:45:09;;;;;;;17.20;13.87;;;;;;;;;;5050414;28;20477;-73
2022/03/18 13:47:45;;;;;;;20.40;14.90;;;;;;;;;;5049713;28;20492;-73
2022/03/18 13:50:14;;;;;;;20.50;14.97;;;;;;;;;;5051498;28;20446;-73
2022/03/18 13:52:39;;;;;;;24.93;16.77;;;;;;;;;;5049399;28;20970;-73
2022/03/18 13:55:06;;;;;;;19.70;14.17;;;;;;;;;;5051844;28;20480;-73
2022/03/18 13:57:48;;;;;;;17.27;13.57;;;;;;;;;;5051222;28;20426;-73
2022/03/18 14:00:44;;;;;;;17.87;13.60;;;;;;;;;;5048710;28;21009;-73
2022/03/18 14:03:11;;;;;;;10.97;9.73;;;;;;;;;;5045586;28;20452;-73
2022/03/18 14:05:38;;;;;;;19.40;13.83;;;;;;;;;;5050262;28;20434;-73
2022/03/18 14:08:04;;;;;;;17.77;9.77;;;;;;;;;;5048602;28;20510;-73
2022/03/18 14:10:37;;;;;;;16.17;12.47;;;;;;;;;;5051511;28;20514;-73
2022/03/18 14:13:05;;;;;;;15.97;12.87;;;;;;;;;;5049097;28;20438;-73
2022/03/18 14:15:33;;;;;;;16.37;13.80;;;;;;;;;;5050165;28;20791;-73
2022/03/18 14:18:02;;;;;;;17.70;13.70;;;;;;;;;;5047402;28;20541;-73
2022/03/18 14:20:28;;;;;;;19.17;13.33;;;;;;;;;;5044245;28;20430;-74
2022/03/18 14:22:59;;;;;;;17.17;12.97;;;;;;;;;;5046201;28;20442;-73
2022/03/18 14:25:29;;;;;;;23.27;13.47;;;;;;;;;;5038352;28;20441;-73
2022/03/18 14:27:55;;;;;;;19.87;12.87;;;;;;;;;;5045462;28;20489;-73
2022/03/18 14:30:23;;;;;;;14.10;11.80;;;;;;;;;;5042577;28;20806;-73
2022/03/18 14:32:50;;;;;;;18.13;13.03;;;;;;;;;;5045547;28;20449;-74
2022/03/18 14:35:17;;;;;;;20.73;15.27;;;;;;;;;;5034945;28;20560;-73
2022/03/18 14:37:43;;;;;;;17.20;13.50;;;;;;;;;;5043758;28;20443;-74
2022/03/18 14:40:10;;;;;;;18.63;14.47;;;;;;;;;;5047914;28;20472;-74
2022/03/18 14:42:37;;;;;;;20.67;13.30;;;;;;;;;;5047471;28;20465;-74
2022/03/18 14:45:04;;;;;;;16.60;13.50;;;;;;;;;;5040364;28;21163;-74
2022/03/18 14:47:30;;;;;;;17.43;11.60;;;;;;;;;;5041543;28;20520;-73
2022/03/18 14:49:56;;;;;;;15.60;12.37;;;;;;;;;;5042062;28;20502;-73
2022/03/18 14:52:22;;;;;;;19.63;15.17;;;;;;;;;;5038720;28;20443;-74
2022/03/18 14:57:32;;;;;;;17.83;13.93;;;;;;;;;;5044500;28;20452;-73
2022/03/18 15:00:00;;;;;;;14.80;11.47;;;;;;;;;;5031902;28;20442;-74
2022/03/18 15:02:27;;;;;;;17.53;14.70;;;;;;;;;;5032918;28;20443;-74
2022/03/18 15:04:53;;;;;;;13.30;8.37;;;;;;;;;;5029710;28;20442;-73
2022/03/18 15:07:20;;;;;;;24.63;12.30;;;;;;;;;;5038728;28;20986;-73
2022/03/18 15:09:46;;;;;;;18.53;13.00;;;;;;;;;;5040154;28;20448;-74